Time;durP1;ratioP1;P1;durP2;ratioP2;P2;SDS_P1;SDS_P2;PMS_P1;PMS_P2;Temp;Humidity;BMP_temperature;BMP_pressure;BME280_temperature;BME280_humidity;BME280_pressure;Samples;Min_cycle;Max_cycle;Signal;HPM_P1;HPM_P2
2024/01/04 00:01:36;;;;;;;12.75;4.15;;;;;;;7.70;100.00;99392.91;5064919;28;20055;-60
2024/01/04 00:04:02;;;;;;;6.75;3.78;;;;;;;7.63;100.00;99381.13;5063213;28;20033;-60
2024/01/04 00:06:27;;;;;;;14.82;5.10;;;;;;;7.67;100.00;99385.22;5064437;28;20028;-60
2024/01/04 00:08:52;;;;;;;7.13;3.90;;;;;;;7.70;100.00;99400.84;5061779;28;20098;-60
2024/01/04 00:11:18;;;;;;;9.65;4.82;;;;;;;7.71;100.00;99407.84;5060153;28;20029;-60
2024/01/04 00:13:43;;;;;;;11.55;3.90;;;;;;;7.61;100.00;99391.81;5062001;28;20111;-60
2024/01/04 00:16:10;;;;;;;6.90;4.20;;;;;;;7.66;100.00;99410.84;5044927;28;20115;-60
2024/01/04 00:18:36;;;;;;;14.35;3.85;;;;;;;7.68;100.00;99422.16;5062938;28;20043;-60
2024/01/04 00:21:02;;;;;;;10.18;3.88;;;;;;;7.71;100.00;99431.69;5059315;28;20029;-60
2024/01/04 00:23:28;;;;;;;11.65;4.22;;;;;;;7.68;100.00;99439.84;5049949;28;20392;-59
2024/01/04 00:25:54;;;;;;;15.10;3.90;;;;;;;7.72;100.00;99446.59;5062134;28;20033;-60
2024/01/04 00:28:19;;;;;;;6.30;3.40;;;;;;;7.73;100.00;99459.72;5061222;28;20082;-60
2024/01/04 00:30:44;;;;;;;7.35;3.38;;;;;;;7.65;100.00;99443.56;5064102;28;20087;-60
2024/01/04 00:33:10;;;;;;;6.90;4.15;;;;;;;7.72;100.00;99451.88;5047479;28;20115;-60
2024/01/04 00:35:37;;;;;;;10.55;3.63;;;;;;;7.73;100.00;99478.25;5062788;28;20028;-60
2024/01/04 00:38:03;;;;;;;9.40;3.72;;;;;;;7.72;100.00;99483.63;5063871;28;20028;-60
2024/01/04 00:40:28;;;;;;;5.82;3.35;;;;;;;7.72;100.00;99486.28;5062815;28;20035;-60
2024/01/04 00:42:54;;;;;;;5.53;3.22;;;;;;;7.64;100.00;99489.47;5059794;28;20024;-59
2024/01/04 00:45:20;;;;;;;10.25;3.28;;;;;;;7.58;100.00;99478.50;5059770;28;20031;-60
2024/01/04 00:47:45;;;;;;;6.22;3.15;;;;;;;7.65;100.00;99500.94;5064943;28;20179;-60
2024/01/04 00:50:11;;;;;;;5.90;3.15;;;;;;;7.63;100.00;99502.84;5063550;28;20028;-60
2024/01/04 00:52:36;;;;;;;7.72;3.35;;;;;;;7.64;100.00;99520.38;5057841;28;20441;-60
2024/01/04 00:55:02;;;;;;;15.27;4.57;;;;;;;7.58;100.00;99513.75;5061643;28;20605;-60
2024/01/04 00:57:27;;;;;;;5.22;3.35;;;;;;;7.59;100.00;99522.50;5060867;28;20021;-60
2024/01/04 00:59:53;;;;;;;4.90;3.33;;;;;;;7.61;100.00;99529.38;5060906;28;20025;-60
2024/01/04 01:02:18;;;;;;;6.25;3.38;;;;;;;7.61;100.00;99537.31;5060031;28;20014;-60
2024/01/04 01:04:44;;;;;;;7.05;3.22;;;;;;;7.55;100.00;99537.78;5063767;28;20046;-60
2024/01/04 01:07:09;;;;;;;9.15;3.47;;;;;;;7.59;100.00;99546.31;5063411;28;20109;-60
2024/01/04 01:09:35;;;;;;;6.18;3.47;;;;;;;7.60;100.00;99555.97;5060600;28;20123;-60
2024/01/04 01:12:00;;;;;;;10.63;3.30;;;;;;;7.64;100.00;99552.13;5064650;28;20552;-60
2024/01/04 01:14:25;;;;;;;5.00;2.72;;;;;;;7.68;100.00;99556.28;5060865;28;20028;-60
2024/01/04 01:16:53;;;;;;;7.35;3.50;;;;;;;7.64;100.00;99563.56;5061227;28;20021;-60
2024/01/04 01:19:19;;;;;;;8.77;3.83;;;;;;;7.59;100.00;99548.97;5062355;28;20115;-60
2024/01/04 01:21:44;;;;;;;9.18;4.13;;;;;;;7.63;100.00;99566.34;5061038;28;20489;-60
2024/01/04 01:24:10;;;;;;;9.98;3.25;;;;;;;7.64;100.00;99571.50;5060296;28;20052;-60
2024/01/04 01:26:35;;;;;;;11.10;4.03;;;;;;;7.63;100.00;99574.28;5061213;28;20028;-60
2024/01/04 01:29:00;;;;;;;6.78;3.35;;;;;;;7.57;100.00;99558.84;5061735;28;20029;-60
2024/01/04 01:31:26;;;;;;;7.25;2.80;;;;;;;7.65;100.00;99581.16;5062859;28;20082;-60
2024/01/04 01:33:51;;;;;;;9.00;3.70;;;;;;;7.76;100.00;99592.75;5064521;28;20024;-59
2024/01/04 01:36:17;;;;;;;6.30;3.50;;;;;;;7.65;100.00;99590.91;5061478;28;20025;-60
2024/01/04 01:38:42;;;;;;;10.63;2.97;;;;;;;7.72;100.00;99594.78;5062385;28;20059;-60
2024/01/04 01:41:10;;;;;;;8.05;3.25;;;;;;;7.68;100.00;99601.25;5059261;28;20368;-60
2024/01/04 01:43:35;;;;;;;14.55;3.25;;;;;;;7.60;100.00;99593.00;5059122;28;20021;-60
2024/01/04 01:46:01;;;;;;;7.35;3.08;;;;;;;7.64;100.00;99605.06;5061886;28;20051;-59
2024/01/04 01:48:26;;;;;;;5.97;2.92;;;;;;;7.65;100.00;99622.66;5060259;28;20040;-59
2024/01/04 01:50:52;;;;;;;9.48;3.65;;;;;;;7.63;100.00;99621.91;5059314;28;20021;-60
2024/01/04 01:53:18;;;;;;;9.00;3.20;;;;;;;7.64;100.00;99628.88;5060071;28;20545;-59
2024/01/04 01:55:43;;;;;;;9.70;3.75;;;;;;;7.62;100.00;99630.81;5062305;28;20103;-59
2024/01/04 01:58:11;;;;;;;6.95;3.20;;;;;;;7.59;100.00;99631.88;5059861;28;20056;-59
2024/01/04 02:00:37;;;;;;;9.25;3.50;;;;;;;7.61;100.00;99634.38;5060843;28;20431;-60
2024/01/04 02:03:04;;;;;;;9.32;3.00;;;;;;;7.65;100.00;99646.47;5065277;28;20104;-59
2024/01/04 02:05:30;;;;;;;8.25;3.00;;;;;;;7.63;100.00;99643.06;5058583;28;20024;-60
2024/01/04 02:07:56;;;;;;;9.88;3.75;;;;;;;7.56;100.00;99634.72;5057670;28;20452;-60
2024/01/04 02:10:21;;;;;;;6.47;3.30;;;;;;;7.64;100.00;99648.25;5062703;28;20024;-60
2024/01/04 02:12:47;;;;;;;6.75;3.33;;;;;;;7.64;100.00;99658.81;5059978;28;20025;-59
2024/01/04 02:15:14;;;;;;;9.07;3.03;;;;;;;7.64;100.00;99666.75;5058571;28;20371;-60
2024/01/04 02:17:40;;;;;;;7.03;3.40;;;;;;;7.66;100.00;99666.66;5060647;28;20037;-60
2024/01/04 02:20:06;;;;;;;7.90;3.45;;;;;;;7.68;100.00;99678.00;5060906;28;20075;-60
2024/01/04 02:22:32;;;;;;;13.68;3.63;;;;;;;7.64;100.00;99680.00;5059962;28;20033;-60
2024/01/04 02:24:57;;;;;;;5.43;2.90;;;;;;;7.64;100.00;99687.09;5058852;28;20492;-60
2024/01/04 02:27:22;;;;;;;8.27;3.30;;;;;;;7.64;100.00;99689.75;5058438;28;20027;-60
2024/01/04 02:29:48;;;;;;;7.13;3.28;;;;;;;7.65;100.00;99681.72;5062451;28;20494;-60
2024/01/04 02:32:13;;;;;;;13.55;3.95;;;;;;;7.66;100.00;99688.69;5061601;28;20024;-60
2024/01/04 02:34:39;;;;;;;9.90;3.58;;;;;;;7.63;100.00;99693.34;5061190;28;20108;-59
2024/01/04 02:37:04;;;;;;;6.45;3.75;;;;;;;7.64;100.00;99692.38;5060508;28;20048;-60
2024/01/04 02:39:29;;;;;;;11.77;3.88;;;;;;;7.67;100.00;99702.75;5063499;28;20035;-60
2024/01/04 02:41:55;;;;;;;7.20;3.60;;;;;;;7.64;100.00;99695.03;5056925;28;20033;-60
2024/01/04 02:44:20;;;;;;;8.95;3.25;;;;;;;7.67;100.00;99710.69;5059534;28;20124;-60
2024/01/04 02:46:47;;;;;;;11.27;3.80;;;;;;;7.65;100.00;99710.81;5061699;28;20024;-60
2024/01/04 02:49:13;;;;;;;6.90;3.50;;;;;;;7.67;100.00;99708.88;5057843;28;20115;-60
2024/01/04 02:51:38;;;;;;;11.32;3.92;;;;;;;7.63;100.00;99717.16;5060721;28;20039;-59
2024/01/04 02:54:04;;;;;;;10.85;3.30;;;;;;;7.58;100.00;99719.28;5062259;28;20055;-60
2024/01/04 02:56:29;;;;;;;4.13;2.80;;;;;;;7.64;100.00;99719.69;5056556;28;20108;-60
2024/01/04 02:58:54;;;;;;;6.63;3.00;;;;;;;7.56;100.00;99718.53;5060003;28;20471;-60
2024/01/04 03:01:20;;;;;;;6.90;2.35;;;;;;;7.57;100.00;99726.38;5061713;28;20013;-60
2024/01/04 03:03:48;;;;;;;4.75;2.53;;;;;;;7.46;100.00;99724.44;5058986;28;20086;-59
2024/01/04 03:06:13;;;;;;;4.35;2.53;;;;;;;7.39;100.00;99728.47;5058748;28;20024;-60
2024/01/04 03:08:38;;;;;;;8.10;2.70;;;;;;;7.26;100.00;99725.81;5059428;28;20021;-60
2024/01/04 03:11:04;;;;;;;6.05;2.45;;;;;;;7.39;100.00;99748.78;5057718;28;20020;-60
2024/01/04 03:13:29;;;;;;;8.10;2.53;;;;;;;7.36;100.00;99752.50;5060604;28;20080;-60
2024/01/04 03:15:55;;;;;;;3.13;2.13;;;;;;;7.36;100.00;99751.66;5060036;28;20070;-60
2024/01/04 03:18:20;;;;;;;3.13;2.65;;;;;;;7.40;100.00;99751.31;5059339;28;20045;-60
2024/01/04 03:20:45;;;;;;;3.90;2.35;;;;;;;7.38;100.00;99757.66;5059689;28;20512;-60
2024/01/04 03:23:11;;;;;;;4.72;2.83;;;;;;;7.41;100.00;99757.44;5058166;28;20017;-59
2024/01/04 03:25:37;;;;;;;4.40;2.70;;;;;;;7.36;100.00;99771.00;5059013;28;20056;-60
2024/01/04 03:28:02;;;;;;;5.50;3.05;;;;;;;7.38;100.00;99768.25;5060058;28;20016;-60
2024/01/04 03:30:28;;;;;;;5.68;2.88;;;;;;;7.29;100.00;99756.47;5060995;28;20538;-60
2024/01/04 03:32:53;;;;;;;4.50;2.88;;;;;;;7.39;100.00;99769.94;5062396;28;20016;-60
2024/01/04 03:35:18;;;;;;;4.35;2.95;;;;;;;7.44;100.00;99773.13;5061228;28;20491;-60
2024/01/04 03:37:44;;;;;;;6.68;3.25;;;;;;;7.34;100.00;99774.69;5059476;28;20108;-60
2024/01/04 03:40:10;;;;;;;6.43;3.45;;;;;;;7.35;100.00;99771.09;5062400;28;20024;-59
2024/01/04 03:42:36;;;;;;;6.80;3.75;;;;;;;7.19;100.00;99772.13;5062491;28;20403;-60
2024/01/04 03:45:02;;;;;;;9.40;3.42;;;;;;;7.30;100.00;99792.56;5064572;28;20778;-60
2024/01/04 03:47:28;;;;;;;5.00;3.78;;;;;;;7.26;100.00;99785.78;5064484;28;20501;-60
2024/01/04 03:49:53;;;;;;;11.95;3.80;;;;;;;7.34;100.00;99793.22;5063263;28;20460;-60
2024/01/04 03:52:19;;;;;;;10.93;4.32;;;;;;;7.30;100.00;99797.03;5061868;28;20026;-59
2024/01/04 03:54:44;;;;;;;5.68;3.95;;;;;;;7.27;100.00;99795.44;5061354;28;20519;-60
2024/01/04 03:57:10;;;;;;;8.18;4.65;;;;;;;7.28;100.00;99797.94;5061744;28;20013;-60
2024/01/04 03:59:37;;;;;;;8.15;4.20;;;;;;;7.28;100.00;99805.03;5062134;28;20099;-60
2024/01/04 04:02:02;;;;;;;8.95;4.97;;;;;;;7.26;100.00;99805.16;5063486;28;20032;-60
2024/01/04 04:04:30;;;;;;;10.60;4.40;;;;;;;7.28;100.00;99799.75;5060562;28;20074;-60
2024/01/04 04:06:56;;;;;;;8.00;4.50;;;;;;;7.29;100.00;99801.44;5063334;28;20025;-60
2024/01/04 04:09:21;;;;;;;7.82;5.10;;;;;;;7.32;100.00;99806.53;5063454;28;20028;-59
2024/01/04 04:11:49;;;;;;;11.18;4.82;;;;;;;7.33;100.00;99812.69;5061703;28;20055;-60
2024/01/04 04:14:15;;;;;;;8.25;4.78;;;;;;;7.36;100.00;99817.78;5062149;28;20056;-60
2024/01/04 04:16:41;;;;;;;7.57;4.43;;;;;;;7.35;100.00;99824.00;5063087;28;20039;-60
2024/01/04 04:19:08;;;;;;;9.18;4.38;;;;;;;7.36;100.00;99823.91;5059750;28;20495;-60
2024/01/04 04:21:33;;;;;;;9.75;6.00;;;;;;;7.36;100.00;99829.19;5060417;28;20414;-60
2024/01/04 04:23:59;;;;;;;11.45;5.53;;;;;;;7.42;100.00;99825.31;5061445;28;20028;-60
2024/01/04 04:26:24;;;;;;;9.63;5.32;;;;;;;7.33;100.00;99816.19;5062267;28;20021;-60
2024/01/04 04:28:50;;;;;;;9.85;5.47;;;;;;;7.41;100.00;99840.31;5062306;28;20041;-60
2024/01/04 04:31:16;;;;;;;9.90;5.45;;;;;;;7.42;100.00;99846.47;5061637;28;20033;-60
2024/01/04 04:33:47;;;;;;;13.10;6.07;;;;;;;7.41;100.00;99848.25;5064006;28;20051;-62
2024/01/04 04:36:12;;;;;;;10.27;4.55;;;;;;;7.43;100.00;99838.41;5062694;28;20479;-60
2024/01/04 04:38:38;;;;;;;8.23;5.60;;;;;;;7.44;100.00;99842.78;5063243;28;20086;-60
2024/01/04 04:41:05;;;;;;;9.23;5.85;;;;;;;7.34;100.00;99832.88;5060672;28;20028;-60
2024/01/04 04:43:31;;;;;;;13.60;5.72;;;;;;;7.44;100.00;99848.06;5062770;28;20028;-60
2024/01/04 04:45:57;;;;;;;12.35;5.72;;;;;;;7.42;100.00;99857.03;5062866;28;20055;-60
2024/01/04 04:48:25;;;;;;;11.25;5.25;;;;;;;7.42;100.00;99860.53;5063208;28;20053;-60
2024/01/04 04:50:55;;;;;;;11.52;4.65;;;;;;;7.41;100.00;99861.50;5068555;28;20029;-60
2024/01/04 04:53:20;;;;;;;7.88;5.00;;;;;;;7.40;100.00;99859.78;5054609;28;20025;-60
2024/01/04 04:55:46;;;;;;;8.48;4.72;;;;;;;7.35;100.00;99856.56;5060578;28;20074;-60
2024/01/04 04:58:11;;;;;;;7.22;4.78;;;;;;;7.35;100.00;99853.94;5071341;28;20033;-60
2024/01/04 05:00:39;;;;;;;9.23;4.82;;;;;;;7.30;100.00;99852.56;5069874;28;20494;-60
2024/01/04 05:03:05;;;;;;;8.27;4.93;;;;;;;7.40;100.00;99867.72;5065435;28;20707;-60
2024/01/04 05:05:31;;;;;;;10.45;4.85;;;;;;;7.33;100.00;99862.94;5061072;28;20024;-60
2024/01/04 05:07:59;;;;;;;12.20;6.05;;;;;;;7.36;100.00;99863.56;5058523;28;20099;-60
2024/01/04 05:10:24;;;;;;;10.50;6.03;;;;;;;7.33;100.00;99865.59;5054566;28;20021;-60
2024/01/04 05:12:51;;;;;;;7.40;5.32;;;;;;;7.44;100.00;99879.81;5058945;28;20073;-60
2024/01/04 05:15:17;;;;;;;7.95;5.93;;;;;;;7.45;100.00;99884.13;5056720;28;20039;-60
2024/01/04 05:17:42;;;;;;;14.05;6.78;;;;;;;7.27;100.00;99859.75;5070871;28;20025;-59
2024/01/04 05:20:08;;;;;;;12.13;6.97;;;;;;;7.37;100.00;99881.13;5066822;28;20020;-60
2024/01/04 05:22:34;;;;;;;14.80;7.97;;;;;;;7.30;100.00;99879.84;5062910;28;20029;-60
2024/01/04 05:25:00;;;;;;;12.70;6.35;;;;;;;7.28;100.00;99884.38;5063905;28;20506;-60
2024/01/04 05:27:25;;;;;;;11.75;6.45;;;;;;;7.25;100.00;99885.44;5054443;28;20064;-60
2024/01/04 05:29:50;;;;;;;9.85;6.15;;;;;;;7.22;100.00;99901.50;5060131;28;20029;-60
2024/01/04 05:32:16;;;;;;;9.23;6.07;;;;;;;7.25;100.00;99903.09;5052324;28;20029;-59
2024/01/04 05:34:44;;;;;;;7.03;4.63;;;;;;;7.16;100.00;99901.06;5056024;28;20068;-60
2024/01/04 05:37:09;;;;;;;5.00;4.32;;;;;;;7.22;100.00;99911.22;5058036;28;20095;-60
2024/01/04 05:39:35;;;;;;;5.82;4.15;;;;;;;7.19;100.00;99914.91;5065175;28;20051;-60
2024/01/04 05:42:01;;;;;;;5.88;4.20;;;;;;;7.13;100.00;99904.72;5057536;28;20036;-60
2024/01/04 05:44:26;;;;;;;4.10;3.58;;;;;;;7.09;100.00;99897.97;5065322;28;20028;-61
2024/01/04 05:46:52;;;;;;;5.03;3.85;;;;;;;7.18;100.00;99915.88;5070239;28;20036;-60
2024/01/04 05:49:17;;;;;;;4.57;3.40;;;;;;;7.09;100.00;99920.88;5061062;28;20424;-60
2024/01/04 05:51:43;;;;;;;3.60;3.30;;;;;;;7.09;100.00;99916.47;5051845;28;20105;-60
2024/01/04 05:54:08;;;;;;;7.10;3.13;;;;;;;7.09;100.00;99929.69;5055054;28;20028;-60
2024/01/04 05:56:34;;;;;;;5.10;3.40;;;;;;;7.01;100.00;99919.59;5058473;28;20079;-60
2024/01/04 05:58:59;;;;;;;5.13;3.30;;;;;;;7.07;100.00;99934.22;5052221;28;20047;-60
2024/01/04 06:01:27;;;;;;;4.40;3.50;;;;;;;7.09;100.00;99947.31;5071167;28;20463;-60
2024/01/04 06:03:52;;;;;;;4.57;3.65;;;;;;;7.13;100.00;99944.41;5068194;28;20111;-60
2024/01/04 06:06:19;;;;;;;5.10;3.17;;;;;;;7.07;100.00;99949.22;5057919;28;20602;-60
2024/01/04 06:08:45;;;;;;;6.18;3.58;;;;;;;6.99;100.00;99942.63;5064081;28;20107;-60
2024/01/04 06:11:10;;;;;;;3.75;3.45;;;;;;;7.08;100.00;99953.56;5061227;28;20024;-59
2024/01/04 06:13:39;;;;;;;4.88;3.70;;;;;;;7.10;100.00;99964.91;5061593;28;20394;-59
2024/01/04 06:16:05;;;;;;;5.32;2.88;;;;;;;7.13;100.00;99965.56;5063512;28;20024;-60
2024/01/04 06:18:31;;;;;;;5.10;3.28;;;;;;;7.08;100.00;99972.06;5071364;28;20032;-60
2024/01/04 06:20:56;;;;;;;8.45;4.00;;;;;;;7.12;100.00;99968.28;5061012;28;20031;-60
2024/01/04 06:23:22;;;;;;;7.22;3.50;;;;;;;7.16;100.00;99973.28;5063178;28;20031;-60
2024/01/04 06:25:47;;;;;;;2.90;2.70;;;;;;;7.19;100.00;99980.19;5069824;28;20111;-60
2024/01/04 06:28:13;;;;;;;5.88;3.97;;;;;;;7.13;100.00;99976.13;5065022;28;20024;-60
2024/01/04 06:30:38;;;;;;;5.03;3.70;;;;;;;7.12;100.00;99977.09;5067259;28;20071;-60
2024/01/04 06:33:04;;;;;;;5.72;3.83;;;;;;;7.10;100.00;99964.91;5060578;28;20024;-60
2024/01/04 06:35:29;;;;;;;8.38;4.68;;;;;;;7.12;100.00;99979.72;5055724;28;20025;-60
2024/01/04 06:37:54;;;;;;;5.95;4.30;;;;;;;7.12;100.00;99979.72;5068850;28;20379;-60
2024/01/04 06:40:20;;;;;;;8.80;4.80;;;;;;;7.12;100.00;99984.13;5071159;28;20029;-60
2024/01/04 06:42:53;;;;;;;5.03;4.53;;;;;;;7.10;100.00;99978.13;5054370;28;20067;-60
2024/01/04 06:45:18;;;;;;;5.47;4.28;;;;;;;7.14;100.00;99993.69;5051345;28;20071;-60
2024/01/04 06:47:43;;;;;;;6.35;4.43;;;;;;;7.13;100.00;99993.78;5064200;28;20504;-60
2024/01/04 06:50:09;;;;;;;10.63;5.60;;;;;;;7.11;100.00;99991.22;5069214;28;20044;-60
2024/01/04 06:52:35;;;;;;;5.35;4.43;;;;;;;7.16;100.00;100007.66;5059070;28;20221;-60
2024/01/04 06:55:00;;;;;;;8.30;4.20;;;;;;;7.14;100.00;100011.34;5070775;28;20025;-60
2024/01/04 06:57:28;;;;;;;5.25;3.72;;;;;;;7.13;100.00;100018.44;5069703;28;20383;-60
2024/01/04 06:59:56;;;;;;;7.07;4.55;;;;;;;7.10;100.00;100021.28;5050920;28;20025;-60
2024/01/04 07:02:21;;;;;;;7.82;4.18;;;;;;;7.00;100.00;100018.34;5052513;28;20392;-60
2024/01/04 07:04:46;;;;;;;8.20;4.47;;;;;;;7.10;100.00;100023.91;5050769;28;20032;-60
2024/01/04 07:07:12;;;;;;;4.78;4.20;;;;;;;7.12;100.00;100029.97;5051091;28;20114;-60
2024/01/04 07:09:37;;;;;;;8.48;3.88;;;;;;;7.13;100.00;100041.38;5053074;28;20027;-60
2024/01/04 07:12:03;;;;;;;5.38;4.22;;;;;;;7.08;100.00;100038.16;5063918;28;20024;-60
2024/01/04 07:14:31;;;;;;;8.93;4.13;;;;;;;7.13;100.00;100047.53;5061102;28;20029;-60
2024/01/04 07:16:57;;;;;;;5.80;3.33;;;;;;;7.14;100.00;100041.28;5062265;28;20430;-60
2024/01/04 07:19:22;;;;;;;10.20;4.55;;;;;;;7.14;100.00;100051.00;5070057;28;20116;-60
2024/01/04 07:21:50;;;;;;;9.63;3.97;;;;;;;7.20;100.00;100048.81;5074666;28;20020;-60
2024/01/04 07:24:16;;;;;;;5.53;3.83;;;;;;;7.17;100.00;100061.41;5065455;28;20032;-60
2024/01/04 07:26:41;;;;;;;5.25;3.50;;;;;;;7.18;100.00;100052.53;5056027;28;20031;-60
2024/01/04 07:29:07;;;;;;;10.63;4.45;;;;;;;7.13;100.00;100050.16;5059180;28;20025;-60
2024/01/04 07:31:32;;;;;;;6.18;4.05;;;;;;;7.16;100.00;100054.41;5053194;28;20511;-60
2024/01/04 07:33:59;;;;;;;9.00;4.55;;;;;;;7.22;100.00;100059.31;5054630;28;20069;-60
2024/01/04 07:36:24;;;;;;;10.43;5.25;;;;;;;7.17;100.00;100067.53;5064271;28;20029;-60
2024/01/04 07:38:50;;;;;;;10.20;5.30;;;;;;;7.12;100.00;100050.25;5072865;28;20034;-60
2024/01/04 07:41:17;;;;;;;14.43;6.03;;;;;;;7.11;100.00;100065.25;5073837;28;20372;-60
2024/01/04 07:43:43;;;;;;;10.38;6.10;;;;;;;7.02;100.00;100058.75;5074112;28;20384;-60
2024/01/04 07:46:08;;;;;;;7.60;5.45;;;;;;;7.10;100.00;100075.94;5070447;28;20028;-60
2024/01/04 07:48:34;;;;;;;12.43;6.88;;;;;;;7.09;100.00;100083.03;5072243;28;20051;-60
2024/01/04 07:50:59;;;;;;;15.77;7.60;;;;;;;7.01;100.00;100077.34;5073624;28;20483;-60
2024/01/04 07:53:24;;;;;;;15.35;5.68;;;;;;;6.99;100.00;100076.59;5073662;28;20483;-60
2024/01/04 07:55:50;;;;;;;14.27;6.72;;;;;;;7.00;100.00;100094.16;5072949;28;20107;-60
2024/01/04 07:58:15;;;;;;;13.10;6.28;;;;;;;7.02;100.00;100092.28;5054106;28;20398;-60
2024/01/04 08:00:45;;;;;;;12.25;6.32;;;;;;;6.97;100.00;100096.97;5054610;28;20087;-60
2024/01/04 08:03:11;;;;;;;8.75;6.07;;;;;;;7.01;100.00;100111.72;5052490;28;20029;-60
2024/01/04 08:05:36;;;;;;;9.10;4.85;;;;;;;7.04;100.00;100108.91;5052383;28;20039;-60
2024/01/04 08:08:05;;;;;;;9.32;5.47;;;;;;;7.02;100.00;100124.84;5054486;28;20029;-60
2024/01/04 08:10:30;;;;;;;15.35;6.35;;;;;;;6.99;100.00;100117.09;5058526;28;20021;-60
2024/01/04 08:12:58;;;;;;;10.48;5.10;;;;;;;7.03;100.00;100113.34;5055581;28;20379;-60
2024/01/04 08:15:23;;;;;;;9.57;5.10;;;;;;;6.97;100.00;100113.72;5070501;28;20036;-63
2024/01/04 08:17:49;;;;;;;8.73;4.90;;;;;;;7.05;100.00;100119.38;5063586;28;20025;-60
2024/01/04 08:20:14;;;;;;;8.32;4.63;;;;;;;7.07;100.00;100123.72;5064559;28;20070;-60
2024/01/04 08:22:40;;;;;;;11.50;4.78;;;;;;;7.05;100.00;100126.44;5053260;28;20029;-60
2024/01/04 08:25:06;;;;;;;10.80;3.83;;;;;;;7.12;100.00;100117.22;5064120;28;20042;-60
2024/01/04 08:27:32;;;;;;;8.75;4.28;;;;;;;7.05;100.00;100111.44;5072043;28;20024;-60
2024/01/04 08:30:00;;;;;;;9.85;3.67;;;;;;;7.11;100.00;100119.94;5073026;28;20031;-60
2024/01/04 08:32:25;;;;;;;7.88;3.67;;;;;;;7.14;100.00;100117.97;5072948;28;20039;-60
2024/01/04 08:34:50;;;;;;;5.18;3.10;;;;;;;7.23;100.00;100132.41;5072488;28;20029;-60
2024/01/04 08:37:20;;;;;;;11.88;3.90;;;;;;;7.16;100.00;100131.94;5072929;28;20017;-60
2024/01/04 08:39:45;;;;;;;6.45;3.80;;;;;;;7.12;100.00;100130.44;5072328;28;20055;-60
2024/01/04 08:42:11;;;;;;;7.88;3.53;;;;;;;7.14;100.00;100132.97;5071657;28;20475;-60
2024/01/04 08:44:39;;;;;;;4.50;3.60;;;;;;;7.12;100.00;100132.22;5070547;28;20045;-60
2024/01/04 08:47:06;;;;;;;3.60;3.22;;;;;;;7.20;100.00;100132.59;5063100;28;20039;-59
2024/01/04 08:49:32;;;;;;;7.57;3.45;;;;;;;7.14;100.00;100143.56;5072111;28;20052;-60
2024/01/04 08:51:57;;;;;;;4.03;3.15;;;;;;;7.14;100.00;100148.84;5071934;28;20105;-59
2024/01/04 08:54:23;;;;;;;8.02;3.80;;;;;;;7.19;100.00;100144.97;5072123;28;20024;-59
2024/01/04 08:56:48;;;;;;;3.15;2.85;;;;;;;7.17;100.00;100153.94;5072739;28;20498;-61
2024/01/04 08:59:13;;;;;;;8.07;3.80;;;;;;;7.12;100.00;100158.66;5070855;28;20036;-59
2024/01/04 09:01:42;;;;;;;4.93;3.30;;;;;;;7.12;100.00;100158.66;5070908;28;20024;-59
2024/01/04 09:04:07;;;;;;;3.88;2.42;;;;;;;7.17;100.00;100156.59;5072682;28;20032;-60
2024/01/04 09:06:33;;;;;;;3.17;2.58;;;;;;;7.15;100.00;100162.00;5072316;28;20021;-59
2024/01/04 09:08:59;;;;;;;6.13;3.05;;;;;;;7.09;100.00;100162.38;5072398;28;20028;-60
2024/01/04 09:11:28;;;;;;;3.38;2.78;;;;;;;7.03;100.00;100155.63;5067031;28;20372;-60
2024/01/04 09:13:53;;;;;;;2.70;2.50;;;;;;;6.98;100.00;100146.28;5071350;28;20453;-60
2024/01/04 09:16:21;;;;;;;3.50;2.92;;;;;;;7.09;100.00;100172.06;5059532;28;20063;-60
2024/01/04 09:18:46;;;;;;;3.25;2.30;;;;;;;7.08;100.00;100179.16;5071902;28;20017;-60
2024/01/04 09:21:11;;;;;;;2.90;2.60;;;;;;;7.13;100.00;100186.81;5064930;28;20039;-60
2024/01/04 09:23:37;;;;;;;2.97;2.33;;;;;;;7.11;100.00;100178.13;5058033;28;20488;-60
2024/01/04 09:26:08;;;;;;;2.65;2.53;;;;;;;7.14;100.00;100177.94;5065848;28;20017;-60
2024/01/04 09:28:36;;;;;;;2.78;2.45;;;;;;;7.15;100.00;100180.50;5053193;28;20427;-60
2024/01/04 09:31:02;;;;;;;3.33;2.22;;;;;;;7.21;100.00;100193.34;5059135;28;20013;-60
2024/01/04 09:33:27;;;;;;;2.30;2.20;;;;;;;7.27;100.00;100190.34;5063761;28;20032;-60
2024/01/04 09:35:53;;;;;;;4.43;3.22;;;;;;;7.25;100.00;100200.16;5049986;28;20021;-60
2024/01/04 09:38:19;;;;;;;7.28;2.83;;;;;;;7.24;100.00;100194.97;5050483;28;20024;-60
2024/01/04 09:40:45;;;;;;;2.58;2.40;;;;;;;6.99;100.00;100155.91;5050146;28;20507;-60
2024/01/04 09:43:15;;;;;;;5.32;2.90;;;;;;;7.34;100.00;100211.13;5051857;28;20070;-60
2024/01/04 09:45:43;;;;;;;2.58;2.45;;;;;;;7.28;100.00;100207.91;5050448;28;20071;-60
2024/01/04 09:48:13;;;;;;;2.75;2.55;;;;;;;7.27;100.00;100216.78;5068409;28;20039;-60
2024/01/04 09:50:39;;;;;;;3.15;2.80;;;;;;;7.28;100.00;100210.53;5071175;28;20027;-60
2024/01/04 09:53:06;;;;;;;2.60;2.40;;;;;;;7.27;100.00;100215.94;5071622;28;20103;-60
2024/01/04 09:55:35;;;;;;;4.68;3.03;;;;;;;7.27;100.00;100218.59;5071167;28;20059;-60
2024/01/04 09:58:00;;;;;;;2.05;1.95;;;;;;;7.30;100.00;100228.13;5071806;28;20483;-60
2024/01/04 10:00:27;;;;;;;7.18;3.63;;;;;;;7.25;100.00;100218.66;5071630;28;20031;-60
2024/01/04 10:02:53;;;;;;;6.57;3.13;;;;;;;7.22;100.00;100218.84;5070250;28;20035;-60
2024/01/04 10:05:20;;;;;;;3.92;2.55;;;;;;;7.19;100.00;100221.69;5071352;28;20107;-60
2024/01/04 10:08:20;;;;;;;3.20;2.90;;;;;;;7.28;100.00;100239.66;5070269;28;20161;-60
2024/01/04 10:10:46;;;;;;;3.47;3.10;;;;;;;7.23;100.00;100233.75;5066226;28;20406;-61
2024/01/04 10:13:12;;;;;;;3.85;2.65;;;;;;;7.30;100.00;100244.00;5054716;28;20025;-60
2024/01/04 10:15:37;;;;;;;2.85;2.60;;;;;;;7.32;100.00;100248.25;5055219;28;20032;-60
2024/01/04 10:18:07;;;;;;;3.25;2.80;;;;;;;7.01;100.00;100206.91;5070246;28;20060;-60
2024/01/04 10:20:33;;;;;;;3.47;2.95;;;;;;;7.27;100.00;100258.25;5062539;28;20032;-60
2024/01/04 10:22:58;;;;;;;3.00;2.80;;;;;;;7.26;100.00;100254.78;5051277;28;20056;-60
2024/01/04 10:25:24;;;;;;;5.00;3.15;;;;;;;7.22;100.00;100247.94;5050778;28;20029;-60
2024/01/04 10:27:56;;;;;;;3.90;2.80;;;;;;;7.29;100.00;100272.22;5051068;28;20071;-60
2024/01/04 10:30:22;;;;;;;2.47;2.30;;;;;;;7.23;100.00;100247.00;5054818;28;20024;-60
2024/01/04 10:32:53;;;;;;;3.92;2.47;;;;;;;7.24;100.00;100261.09;5061071;28;20395;-60
2024/01/04 10:35:29;;;;;;;2.63;2.42;;;;;;;7.15;100.00;100248.41;5064481;28;20472;-60
2024/01/04 10:37:59;;;;;;;2.70;2.50;;;;;;;7.24;100.00;100261.94;5059785;28;20040;-60
2024/01/04 10:40:25;;;;;;;2.95;2.30;;;;;;;7.27;100.00;100260.91;5065006;28;20031;-60
2024/01/04 10:42:53;;;;;;;2.85;2.30;;;;;;;7.31;100.00;100266.88;5059388;28;20104;-60
2024/01/04 10:45:27;;;;;;;2.22;2.13;;;;;;;7.33;100.00;100263.19;5074104;28;20024;-60
2024/01/04 10:47:53;;;;;;;2.65;2.50;;;;;;;7.36;100.00;100268.31;5072260;28;20036;-60
2024/01/04 10:50:22;;;;;;;2.45;2.15;;;;;;;7.41;100.00;100266.25;5074333;28;20386;-60
2024/01/04 10:52:51;;;;;;;2.78;2.55;;;;;;;7.37;100.00;100266.50;5058478;28;20373;-60
2024/01/04 10:55:20;;;;;;;2.53;2.33;;;;;;;7.28;100.00;100242.28;5073800;28;20021;-60
2024/01/04 10:57:47;;;;;;;3.05;2.42;;;;;;;7.27;100.00;100250.34;5073869;28;20028;-60
2024/01/04 11:00:13;;;;;;;4.28;2.30;;;;;;;7.40;100.00;100266.31;5070520;28;20028;-60
2024/01/04 11:02:40;;;;;;;2.50;2.30;;;;;;;7.39;100.00;100256.69;5061044;28;20078;-60
2024/01/04 11:05:09;;;;;;;2.55;2.33;;;;;;;7.41;100.00;100255.66;5068064;28;20025;-60
2024/01/04 11:07:40;;;;;;;2.78;2.35;;;;;;;7.58;100.00;100274.94;5073545;28;20475;-60
2024/01/04 11:10:06;;;;;;;5.40;2.70;;;;;;;7.64;100.00;100270.13;5072191;28;20032;-60
2024/01/04 11:12:34;;;;;;;6.32;2.78;;;;;;;7.78;100.00;100268.47;5074402;28;20433;-60
2024/01/04 11:14:59;;;;;;;2.90;2.70;;;;;;;7.73;100.00;100282.84;5061752;28;20036;-60
2024/01/04 11:17:48;;;;;;;3.20;2.90;;;;;;;7.67;100.00;100275.25;5054482;28;20033;-60
2024/01/04 11:20:32;;;;;;;2.55;2.33;;;;;;;7.67;100.00;100275.25;5052720;28;20044;-60
2024/01/04 11:23:20;;;;;;;2.03;1.92;;;;;;;7.50;100.00;100260.41;5053179;28;20075;-60
2024/01/04 11:26:19;;;;;;;3.65;2.20;;;;;;;7.62;100.00;100271.19;5052755;28;20029;-60